Time;durP1;ratioP1;P1;durP2;ratioP2;P2;SDS_P1;SDS_P2;PMS_P1;PMS_P2;Temp;Humidity;BMP_temperature;BMP_pressure;BME280_temperature;BME280_humidity;BME280_pressure;Samples;Min_cycle;Max_cycle;Signal;HPM_P1;HPM_P2
2023/08/14 00:02:12;;;;;;;3.08;2.78;;;20.00;85.00;;;;;;5044319;28;20266;-84
2023/08/14 00:04:39;;;;;;;3.28;2.97;;;20.00;85.00;;;;;;5095190;28;20170;-85
2023/08/14 00:07:05;;;;;;;3.35;2.83;;;20.00;85.00;;;;;;5112513;28;20262;-85
2023/08/14 00:09:31;;;;;;;3.33;2.75;;;20.00;85.00;;;;;;5113444;28;20226;-87
2023/08/14 00:11:56;;;;;;;3.20;2.90;;;20.00;85.00;;;;;;5078469;28;20171;-85
2023/08/14 00:14:22;;;;;;;3.35;2.97;;;19.90;84.90;;;;;;5078118;28;20239;-84
2023/08/14 00:16:52;;;;;;;3.53;3.00;;;19.90;85.00;;;;;;5095131;28;20171;-87
2023/08/14 00:19:18;;;;;;;3.10;2.80;;;20.00;85.10;;;;;;5060664;28;20274;-87
2023/08/14 00:21:44;;;;;;;2.85;2.60;;;20.00;85.00;;;;;;5095147;28;20209;-85
2023/08/14 00:24:10;;;;;;;3.40;3.10;;;20.00;85.00;;;;;;5077955;28;20171;-87
2023/08/14 00:26:36;;;;;;;2.83;2.53;;;20.00;85.00;;;;;;5078045;28;20195;-88
2023/08/14 00:29:06;;;;;;;3.13;2.83;;;20.00;85.00;;;;;;5095162;28;20156;-85
2023/08/14 00:31:35;;;;;;;3.17;2.88;;;19.90;85.00;;;;;;5044273;28;20230;-88
2023/08/14 00:34:02;;;;;;;3.10;2.80;;;19.90;85.00;;;;;;5060652;28;20226;-86
2023/08/14 00:36:29;;;;;;;3.28;2.97;;;19.90;85.00;;;;;;5078396;28;20168;-86
2023/08/14 00:38:59;;;;;;;3.35;3.05;;;19.90;85.00;;;;;;5078114;28;20251;-87
2023/08/14 00:41:25;;;;;;;3.55;3.22;;;20.00;85.00;;;;;;5060749;28;20258;-86
2023/08/14 00:43:51;;;;;;;3.20;2.90;;;20.00;85.10;;;;;;5094872;28;20156;-87
2023/08/14 00:46:18;;;;;;;3.40;3.10;;;19.90;85.00;;;;;;5077924;28;20160;-86
2023/08/14 00:48:44;;;;;;;3.22;2.90;;;19.90;85.00;;;;;;5043442;28;20180;-85
2023/08/14 00:51:10;;;;;;;3.75;2.80;;;19.90;84.90;;;;;;5094834;28;20163;-86
2023/08/14 00:53:41;;;;;;;3.38;2.90;;;19.90;85.00;;;;;;5113065;28;20235;-86
2023/08/14 00:56:07;;;;;;;3.53;3.10;;;19.90;85.00;;;;;;5043538;28;20550;-89
2023/08/14 00:58:33;;;;;;;3.25;2.80;;;19.90;85.00;;;;;;5096075;28;20163;-88
2023/08/14 01:00:59;;;;;;;3.15;2.85;;;19.90;85.90;;;;;;5081865;28;20262;-85
2023/08/14 01:03:25;;;;;;;3.38;2.80;;;19.90;85.10;;;;;;5081956;28;20175;-85
2023/08/14 01:05:51;;;;;;;3.53;3.20;;;19.90;85.00;;;;;;5081613;28;20168;-85
2023/08/14 01:08:17;;;;;;;3.30;3.00;;;19.90;85.00;;;;;;5097999;28;20180;-85
2023/08/14 01:10:50;;;;;;;3.22;2.92;;;19.90;85.10;;;;;;5098743;28;20622;-85
2023/08/14 01:13:25;;;;;;;3.80;2.90;;;20.00;85.10;;;;;;5081579;28;20217;-85
2023/08/14 01:15:56;;;;;;;3.70;2.83;;;19.90;85.10;;;;;;5081824;28;20172;-88
2023/08/14 01:18:22;;;;;;;3.05;2.75;;;19.90;85.10;;;;;;5081731;28;20255;-86
2023/08/14 01:21:13;;;;;;;3.20;2.88;;;19.90;85.10;;;;;;5116806;28;20610;-87
2023/08/14 01:23:55;;;;;;;3.00;2.70;;;19.90;85.00;;;;;;5098524;28;20214;-87
2023/08/14 01:26:21;;;;;;;3.53;2.92;;;20.00;85.10;;;;;;5116667;28;20179;-86
2023/08/14 01:28:47;;;;;;;3.45;2.92;;;19.90;85.10;;;;;;5081654;28;20610;-87
2023/08/14 01:31:13;;;;;;;3.53;2.78;;;20.00;85.10;;;;;;5098243;28;20152;-85
2023/08/14 01:33:38;;;;;;;4.05;3.10;;;19.90;85.10;;;;;;5081300;28;20535;-87
2023/08/14 01:36:13;;;;;;;3.50;3.20;;;19.90;85.10;;;;;;5081343;28;20241;-85
2023/08/14 01:39:06;;;;;;;3.35;3.05;;;19.90;85.10;;;;;;5098478;28;20159;-87
2023/08/14 01:41:38;;;;;;;3.70;2.97;;;19.90;85.10;;;;;;5071846;28;20545;-87
2023/08/14 01:44:05;;;;;;;3.60;3.10;;;19.80;85.10;;;;;;5081145;28;20214;-87
2023/08/14 01:46:31;;;;;;;3.28;2.97;;;19.90;85.20;;;;;;5097884;28;20226;-88
2023/08/14 01:48:58;;;;;;;3.30;3.00;;;19.90;85.20;;;;;;5114910;28;20160;-86
2023/08/14 01:51:24;;;;;;;3.95;3.10;;;19.90;85.20;;;;;;5081016;28;20175;-85
2023/08/14 01:53:49;;;;;;;3.22;2.92;;;19.90;85.20;;;;;;5081135;28;20164;-87
2023/08/14 01:56:15;;;;;;;3.35;3.05;;;19.90;85.20;;;;;;5097587;28;20219;-86
2023/08/14 01:58:41;;;;;;;3.22;2.80;;;19.90;85.20;;;;;;5080764;28;20175;-86
2023/08/14 02:01:07;;;;;;;3.47;3.17;;;19.90;85.20;;;;;;5115717;28;20229;-86
2023/08/14 02:03:33;;;;;;;3.40;3.10;;;19.90;85.40;;;;;;5080770;28;20627;-86
2023/08/14 02:05:59;;;;;;;3.30;3.00;;;19.90;85.40;;;;;;5080534;28;20241;-86
2023/08/14 02:08:25;;;;;;;3.60;3.30;;;19.90;85.30;;;;;;5096890;28;20317;-84
2023/08/14 02:10:51;;;;;;;3.58;3.10;;;19.90;85.40;;;;;;5114795;28;20176;-86
2023/08/14 02:13:16;;;;;;;3.35;3.05;;;19.90;85.20;;;;;;5115483;28;20152;-87
2023/08/14 02:15:45;;;;;;;3.58;3.15;;;19.90;85.30;;;;;;5063840;28;20229;-88
2023/08/14 02:18:12;;;;;;;3.33;3.03;;;19.90;85.20;;;;;;5115624;28;20568;-85
2023/08/14 02:20:48;;;;;;;3.28;2.78;;;19.80;85.30;;;;;;5097484;28;20156;-87
2023/08/14 02:23:14;;;;;;;3.65;3.10;;;19.80;85.30;;;;;;5097356;28;20201;-87
2023/08/14 02:25:41;;;;;;;3.40;3.00;;;19.80;85.30;;;;;;5080226;28;20176;-84
2023/08/14 02:28:07;;;;;;;3.65;3.10;;;19.80;86.10;;;;;;5097283;28;20227;-86
2023/08/14 02:30:34;;;;;;;3.80;3.22;;;19.80;85.30;;;;;;5080423;28;20204;-86
2023/08/14 02:33:00;;;;;;;3.40;3.08;;;19.90;85.40;;;;;;5097021;28;20149;-85
2023/08/14 02:35:26;;;;;;;3.47;3.10;;;19.80;85.20;;;;;;5097345;28;20168;-88
2023/08/14 02:37:52;;;;;;;3.67;2.92;;;19.80;85.20;;;;;;5097138;28;20159;-86
2023/08/14 02:40:18;;;;;;;3.20;2.90;;;19.90;85.20;;;;;;5080051;28;20160;-86
2023/08/14 02:42:44;;;;;;;3.67;3.28;;;19.90;85.20;;;;;;5080006;28;20160;-86
2023/08/14 02:45:10;;;;;;;3.40;3.10;;;19.80;85.20;;;;;;5080230;28;20518;-85
2023/08/14 02:47:36;;;;;;;3.78;3.10;;;19.80;85.30;;;;;;5096717;28;20215;-87
2023/08/14 02:50:06;;;;;;;3.50;2.95;;;19.80;85.30;;;;;;5079987;28;20584;-86
2023/08/14 02:52:32;;;;;;;3.47;3.00;;;19.80;85.30;;;;;;5062074;28;20175;-85
2023/08/14 02:54:58;;;;;;;3.30;2.85;;;19.90;85.40;;;;;;5096323;28;20168;-87
2023/08/14 02:57:24;;;;;;;3.38;3.05;;;19.80;85.20;;;;;;5079550;28;20223;-88
2023/08/14 02:59:53;;;;;;;3.60;3.00;;;19.80;85.30;;;;;;5096385;28;20519;-86
2023/08/14 03:02:19;;;;;;;3.25;2.95;;;19.80;85.40;;;;;;5078774;28;20195;-86
2023/08/14 03:04:45;;;;;;;3.30;3.00;;;19.80;85.40;;;;;;5096380;28;20259;-87
2023/08/14 03:07:15;;;;;;;3.10;2.75;;;19.70;85.30;;;;;;5093319;28;20219;-88
2023/08/14 03:09:41;;;;;;;3.08;2.78;;;19.80;86.20;;;;;;5078724;28;20172;-85
2023/08/14 03:12:08;;;;;;;3.47;3.00;;;19.80;85.40;;;;;;5079300;28;20160;-86
2023/08/14 03:14:33;;;;;;;3.65;3.22;;;19.80;85.30;;;;;;5079693;28;20152;-87
2023/08/14 03:17:02;;;;;;;3.15;2.85;;;19.80;86.20;;;;;;5079273;28;20167;-86
2023/08/14 03:19:30;;;;;;;3.30;3.00;;;19.80;85.40;;;;;;5061484;28;20190;-85
2023/08/14 03:21:56;;;;;;;3.80;3.05;;;19.80;85.40;;;;;;5045122;28;20245;-85
2023/08/14 03:24:23;;;;;;;4.07;3.30;;;19.80;85.50;;;;;;5095996;28;20164;-86
2023/08/14 03:26:53;;;;;;;3.22;2.85;;;19.80;85.60;;;;;;5061411;28;20702;-86
2023/08/14 03:29:24;;;;;;;3.08;2.78;;;19.80;85.40;;;;;;5095199;28;20184;-85
2023/08/14 03:31:50;;;;;;;3.35;2.88;;;19.70;85.40;;;;;;5062220;28;20188;-85
2023/08/14 03:34:16;;;;;;;4.45;3.30;;;19.80;85.40;;;;;;5079099;28;20566;-86
2023/08/14 03:36:45;;;;;;;3.40;3.10;;;19.80;85.30;;;;;;5095909;28;20172;-87
2023/08/14 03:39:12;;;;;;;3.40;3.10;;;19.80;85.40;;;;;;5078220;28;20195;-87
2023/08/14 03:41:38;;;;;;;3.30;2.78;;;19.80;85.40;;;;;;5112721;28;20677;-86
2023/08/14 03:44:04;;;;;;;3.83;3.33;;;19.80;85.40;;;;;;5095727;28;20172;-85
2023/08/14 03:46:30;;;;;;;3.80;3.25;;;19.80;85.40;;;;;;5096006;28;20180;-87
2023/08/14 03:48:56;;;;;;;3.38;3.08;;;19.80;85.30;;;;;;5095497;28;20170;-86
2023/08/14 03:51:22;;;;;;;3.30;3.00;;;19.80;85.40;;;;;;5062056;28;20163;-87
2023/08/14 03:53:48;;;;;;;3.65;2.97;;;19.80;85.40;;;;;;5095657;28;20164;-86
2023/08/14 03:56:13;;;;;;;3.67;3.25;;;19.70;85.60;;;;;;5112447;28;20212;-87
2023/08/14 03:58:39;;;;;;;4.20;3.30;;;19.70;85.60;;;;;;5095261;28;20594;-87
2023/08/14 04:01:05;;;;;;;3.22;2.90;;;19.70;85.60;;;;;;5095192;28;20193;-86
2023/08/14 04:03:32;;;;;;;3.22;2.92;;;19.70;85.60;;;;;;5078573;28;20189;-87
2023/08/14 04:05:58;;;;;;;3.42;2.90;;;19.70;85.50;;;;;;5062091;28;20172;-85
2023/08/14 04:08:23;;;;;;;3.50;3.20;;;19.70;85.60;;;;;;5060902;28;20210;-87
2023/08/14 04:10:54;;;;;;;3.50;3.20;;;19.80;85.50;;;;;;5078492;28;20152;-86
2023/08/14 04:13:19;;;;;;;3.42;3.03;;;19.70;85.40;;;;;;5095250;28;20180;-87
2023/08/14 04:15:45;;;;;;;3.20;2.90;;;19.80;85.40;;;;;;5095282;28;20164;-87
2023/08/14 04:18:11;;;;;;;3.28;2.95;;;19.80;85.40;;;;;;5078281;28;20172;-86
2023/08/14 04:20:38;;;;;;;3.50;3.03;;;19.80;85.30;;;;;;5112330;28;20180;-85
2023/08/14 04:23:05;;;;;;;3.40;3.10;;;19.80;85.30;;;;;;5112472;28;20495;-85
2023/08/14 04:25:32;;;;;;;3.10;2.80;;;19.80;85.20;;;;;;5094824;28;20165;-87
2023/08/14 04:27:58;;;;;;;3.47;3.10;;;19.80;85.20;;;;;;5111871;28;20209;-86
2023/08/14 04:30:24;;;;;;;3.60;3.05;;;19.80;85.10;;;;;;5113237;28;20163;-86
2023/08/14 04:32:50;;;;;;;3.58;2.83;;;19.80;85.00;;;;;;5079427;28;20235;-86
2023/08/14 04:35:16;;;;;;;3.03;2.72;;;19.80;85.00;;;;;;5101944;28;20235;-86
2023/08/14 04:37:41;;;;;;;3.45;3.15;;;19.80;84.90;;;;;;5101479;28;20243;-87
2023/08/14 04:40:08;;;;;;;3.28;2.97;;;19.80;84.80;;;;;;5068427;28;20612;-86
2023/08/14 04:42:34;;;;;;;3.17;2.85;;;19.90;84.90;;;;;;5118615;27;20549;-86
2023/08/14 04:45:00;;;;;;;3.72;3.00;;;19.90;84.80;;;;;;5118684;28;20160;-87
2023/08/14 04:47:26;;;;;;;3.22;2.92;;;19.90;84.90;;;;;;5101666;28;20194;-86
2023/08/14 04:49:52;;;;;;;3.67;3.10;;;19.90;84.70;;;;;;5118612;28;20148;-85
2023/08/14 04:52:20;;;;;;;3.30;3.00;;;19.90;84.70;;;;;;5101683;28;20159;-87
2023/08/14 04:54:46;;;;;;;3.50;3.20;;;19.90;84.60;;;;;;5101845;28;20194;-88
2023/08/14 04:57:12;;;;;;;4.38;3.00;;;19.90;84.60;;;;;;5101701;28;20608;-88
2023/08/14 04:59:38;;;;;;;3.22;2.80;;;19.90;84.50;;;;;;5118926;28;20188;-89
2023/08/14 05:02:04;;;;;;;3.53;3.03;;;20.00;84.00;;;;;;5118957;28;20160;-88
2023/08/14 05:04:30;;;;;;;3.08;2.78;;;20.00;83.60;;;;;;5084491;28;20163;-89
2023/08/14 05:06:58;;;;;;;3.40;2.90;;;20.00;83.70;;;;;;5118294;28;20252;-88
2023/08/14 05:09:24;;;;;;;3.58;3.10;;;20.00;83.80;;;;;;5084873;28;20164;-88
2023/08/14 05:11:50;;;;;;;3.58;3.15;;;20.00;83.80;;;;;;5118417;28;20220;-89
2023/08/14 05:14:18;;;;;;;3.42;3.00;;;20.00;84.00;;;;;;5084576;28;20156;-88
2023/08/14 05:16:45;;;;;;;3.90;2.97;;;20.00;84.00;;;;;;5085161;28;20178;-89
2023/08/14 05:19:11;;;;;;;3.45;3.15;;;20.00;83.80;;;;;;5056873;28;20193;-88
2023/08/14 05:21:37;;;;;;;3.58;3.15;;;20.00;83.80;;;;;;5040017;28;20182;-88
2023/08/14 05:24:08;;;;;;;3.53;2.90;;;20.00;83.80;;;;;;5040466;28;20174;-89
2023/08/14 05:26:38;;;;;;;3.78;2.80;;;20.00;83.90;;;;;;5057055;28;20657;-88
2023/08/14 05:29:05;;;;;;;3.60;3.00;;;20.00;84.00;;;;;;5023528;28;20717;-89
2023/08/14 05:31:31;;;;;;;3.67;3.17;;;20.00;83.80;;;;;;5023588;28;20174;-88
2023/08/14 05:33:58;;;;;;;2.67;2.47;;;20.00;83.90;;;;;;5041198;28;20193;-88
2023/08/14 05:36:26;;;;;;;3.72;3.05;;;20.00;83.70;;;;;;5057314;28;20162;-89
2023/08/14 05:38:59;;;;;;;3.30;3.00;;;20.00;83.70;;;;;;5039847;28;20178;-89
2023/08/14 05:41:26;;;;;;;3.85;2.92;;;20.00;83.70;;;;;;5008207;28;20189;-88
2023/08/14 05:43:52;;;;;;;3.92;3.20;;;20.10;83.60;;;;;;5023691;28;20663;-88
2023/08/14 05:46:19;;;;;;;3.33;2.80;;;20.10;83.80;;;;;;5035739;28;20162;-87
2023/08/14 05:48:46;;;;;;;3.55;2.92;;;20.00;83.80;;;;;;5022182;28;20231;-89
2023/08/14 05:51:14;;;;;;;3.78;2.75;;;20.00;84.00;;;;;;5062873;28;20180;-88
2023/08/14 05:53:41;;;;;;;3.22;2.92;;;20.00;84.20;;;;;;5082944;28;20157;-89
2023/08/14 05:56:07;;;;;;;3.05;2.75;;;20.00;84.00;;;;;;5100032;28;20219;-88
2023/08/14 05:58:33;;;;;;;3.20;2.90;;;20.00;84.00;;;;;;5100151;28;20525;-89
2023/08/14 06:00:59;;;;;;;3.35;2.65;;;20.00;84.10;;;;;;5102411;28;20198;-90
2023/08/14 06:03:24;;;;;;;3.15;2.85;;;20.10;84.10;;;;;;5123586;28;20156;-89
2023/08/14 06:05:54;;;;;;;3.00;2.70;;;20.10;83.90;;;;;;5106555;28;20189;-89
2023/08/14 06:08:20;;;;;;;3.40;2.90;;;20.10;84.10;;;;;;5071072;28;20203;-90
2023/08/14 06:10:46;;;;;;;3.10;2.75;;;20.00;84.30;;;;;;5089452;28;20211;-90
2023/08/14 06:13:12;;;;;;;3.25;2.95;;;20.00;84.30;;;;;;5099028;28;20601;-89
2023/08/14 06:15:38;;;;;;;3.65;2.92;;;20.00;84.30;;;;;;5097915;28;20290;-89
2023/08/14 06:18:04;;;;;;;3.88;3.10;;;20.10;84.30;;;;;;5081200;28;20164;-88
2023/08/14 06:20:30;;;;;;;3.08;2.75;;;20.00;84.30;;;;;;5116267;28;20187;-87
2023/08/14 06:23:00;;;;;;;3.20;2.60;;;20.00;84.70;;;;;;5097547;28;20203;-88
2023/08/14 06:25:29;;;;;;;3.15;2.80;;;20.00;84.50;;;;;;5063113;28;20651;-87
2023/08/14 06:28:04;;;;;;;3.33;2.70;;;20.10;84.50;;;;;;5098040;28;20192;-89
2023/08/14 06:30:30;;;;;;;3.00;2.63;;;20.10;84.20;;;;;;5066627;28;21101;-89
2023/08/14 06:32:56;;;;;;;2.85;2.60;;;20.10;84.30;;;;;;5115042;28;20675;-89
2023/08/14 06:35:22;;;;;;;3.58;2.90;;;20.10;84.60;;;;;;5097697;28;20164;-88
2023/08/14 06:37:48;;;;;;;3.22;2.90;;;20.10;84.60;;;;;;5097975;28;20166;-89
2023/08/14 06:42:10;;;;;;;3.13;2.83;;;20.00;84.70;;;;;;5098561;28;20167;-89
2023/08/14 06:44:47;;;;;;;;;;;;;;;;;;;;;
2023/08/14 06:48:03;;;;;;;3.53;2.80;;;20.00;84.80;;;;;;4985177;28;20210;-89
2023/08/14 06:50:52;;;;;;;3.22;2.90;;;20.00;85.80;;;;;;4922736;29;20181;-89
2023/08/14 06:53:36;;;;;;;3.35;2.80;;;19.90;85.30;;;;;;4908655;29;20193;-89
2023/08/14 06:56:20;;;;;;;3.65;3.00;;;19.90;85.60;;;;;;4908197;28;20542;-89
2023/08/14 06:58:49;;;;;;;3.13;2.72;;;19.90;85.90;;;;;;4923721;29;20292;-90
2023/08/14 07:01:23;;;;;;;3.50;2.85;;;19.90;86.00;;;;;;4908487;29;20193;-89
2023/08/14 07:04:25;;;;;;;;;;;;;;;;;;;;;
2023/08/14 07:07:50;;;;;;;;;;;;;;;;;;;;;
2023/08/14 07:10:46;;;;;;;3.30;3.00;;;19.90;86.20;;;;;;4902168;29;20256;-89
2023/08/14 07:13:25;;;;;;;3.17;2.83;;;20.10;86.20;;;;;;4914536;29;20763;-90
2023/08/14 07:16:50;;;;;;;4.28;2.60;;;20.10;86.30;;;;;;4872014;29;20191;-90
2023/08/14 07:24:26;;;;;;;;;;;;;;;;;;;;;
2023/08/14 07:26:54;;;;;;;;;;;;;;;;;;;;;
2023/08/14 07:30:23;;;;;;;3.38;2.90;;;20.20;85.90;;;;;;4822283;29;20198;-89
2023/08/14 07:33:38;;;;;;;3.97;3.10;;;20.10;85.90;;;;;;4789408;29;20223;-89
2023/08/14 10:05:09;;;;;;;4.93;3.35;;;21.20;85.60;;;;;;5885433;23;6606148;-88
2023/08/14 11:35:30;;;;;;;5.20;2.78;;;21.60;82.30;;;;;;6157903;23;20671;-90
2023/08/14 11:38:27;;;;;;;;;;;;;;;;;;;;;
2023/08/14 11:40:59;;;;;;;5.25;2.58;;;21.50;82.50;;;;;;5919657;24;20276;-90
2023/08/14 12:11:17;;;;;;;3.80;2.88;;;21.50;81.80;;;;;;5775524;24;20161;-90
2023/08/14 12:13:54;;;;;;;3.30;2.50;;;21.50;81.80;;;;;;5781858;24;20175;-89
2023/08/14 12:16:24;;;;;;;8.70;3.45;;;21.50;81.80;;;;;;5859096;24;20267;-89
2023/08/14 12:18:53;;;;;;;5.68;2.78;;;21.50;82.10;;;;;;5961916;23;20151;-88
2023/08/14 12:21:33;;;;;;;4.32;2.70;;;21.60;82.00;;;;;;6040297;23;20266;-90
2023/08/14 12:24:04;;;;;;;5.75;2.90;;;21.50;82.00;;;;;;6059592;23;20160;-90
2023/08/14 12:26:58;;;;;;;3.53;2.60;;;21.50;81.60;;;;;;6040502;23;20201;-92
2023/08/14 12:29:26;;;;;;;4.03;2.88;;;21.50;81.30;;;;;;6014062;23;20174;-88
2023/08/14 12:31:57;;;;;;;3.97;2.38;;;21.60;81.50;;;;;;5921990;23;20166;-90
2023/08/14 12:34:32;;;;;;;2.75;2.50;;;21.60;80.90;;;;;;5981359;23;20205;-89
2023/08/14 12:37:06;;;;;;;5.20;2.47;;;21.60;80.80;;;;;;6019931;23;20157;-89
2023/08/14 12:39:32;;;;;;;3.00;2.70;;;21.60;80.70;;;;;;6020643;23;20502;-89
2023/08/14 12:42:03;;;;;;;2.78;2.45;;;21.50;80.80;;;;;;5996063;23;20209;-88
2023/08/14 12:44:38;;;;;;;2.75;2.50;;;21.60;80.60;;;;;;6003799;23;20182;-89
2023/08/14 12:47:16;;;;;;;5.07;2.40;;;21.60;80.30;;;;;;6013887;23;20590;-88
2023/08/14 12:49:42;;;;;;;3.45;2.47;;;21.70;80.00;;;;;;5993057;23;20229;-89
2023/08/14 12:52:40;;;;;;;5.38;2.65;;;21.70;80.60;;;;;;5934282;24;20165;-89
2023/08/14 12:55:14;;;;;;;4.18;2.55;;;21.60;80.90;;;;;;5910221;24;20160;-90
2023/08/14 12:57:41;;;;;;;3.83;2.40;;;21.60;80.90;;;;;;5900241;24;20156;-88
2023/08/14 13:04:06;;;;;;;4.68;2.40;;;21.70;79.90;;;;;;5852436;24;20245;-88
2023/08/14 13:06:50;;;;;;;4.93;2.40;;;21.80;79.80;;;;;;5795261;24;20167;-90
2023/08/14 13:09:52;;;;;;;5.97;2.60;;;21.70;79.70;;;;;;5820277;24;20162;-90
2023/08/14 13:15:44;;;;;;;2.92;2.38;;;21.80;79.70;;;;;;5795230;24;20245;-88
2023/08/14 13:18:57;;;;;;;5.95;2.58;;;21.70;79.60;;;;;;5804870;24;20157;-90
2023/08/14 13:21:47;;;;;;;6.72;2.47;;;21.70;79.50;;;;;;5766840;24;20196;-89
2023/08/14 14:36:47;;;;;;;3.50;2.50;;;21.70;79.60;;;;;;6157462;23;20206;-90
2023/08/14 14:39:32;;;;;;;4.28;2.72;;;21.60;79.70;;;;;;6086386;23;20222;-88
2023/08/14 15:55:12;;;;;;;3.05;2.67;;;21.60;80.20;;;;;;6116764;23;20494;-89
2023/08/14 15:57:52;;;;;;;3.10;2.75;;;21.60;80.20;;;;;;6075067;23;20163;-91
2023/08/14 16:00:28;;;;;;;5.45;2.50;;;21.60;80.10;;;;;;6045942;23;20617;-90
2023/08/14 17:44:58;;;;;;;3.20;2.90;;;21.40;80.80;;;;;;6203595;22;21085;-87
2023/08/14 17:47:33;;;;;;;4.43;3.28;;;21.40;80.80;;;;;;6138259;23;20163;-89
2023/08/14 17:50:03;;;;;;;4.68;2.97;;;21.40;80.80;;;;;;6107390;23;20581;-89
2023/08/14 17:52:35;;;;;;;3.22;2.92;;;21.40;80.80;;;;;;6058703;23;20212;-89
2023/08/14 17:55:15;;;;;;;3.38;3.08;;;21.40;80.80;;;;;;6058568;23;20488;-89
2023/08/14 17:57:49;;;;;;;3.33;3.03;;;21.30;80.80;;;;;;6077663;23;20207;-88
2023/08/14 18:00:20;;;;;;;3.80;3.35;;;21.30;80.80;;;;;;6031181;23;20156;-89
2023/08/14 18:02:55;;;;;;;3.58;3.15;;;21.20;80.80;;;;;;6031088;23;20188;-89
2023/08/14 18:05:27;;;;;;;3.45;3.15;;;21.30;80.80;;;;;;6025610;23;20225;-88
2023/08/14 18:08:09;;;;;;;3.42;3.13;;;21.30;81.70;;;;;;6002551;23;20180;-88
2023/08/14 18:10:45;;;;;;;3.40;3.10;;;21.30;80.90;;;;;;6006057;23;20157;-88
2023/08/14 18:13:24;;;;;;;3.33;3.00;;;21.30;80.90;;;;;;5959383;24;20183;-87
2023/08/14 18:16:14;;;;;;;3.97;3.35;;;21.30;80.90;;;;;;5915632;24;20179;-89
2023/08/14 18:18:53;;;;;;;4.80;3.35;;;21.30;81.00;;;;;;5894120;24;20168;-89
2023/08/14 18:21:22;;;;;;;5.03;3.28;;;21.30;81.00;;;;;;5904973;24;20185;-87
2023/08/14 18:23:54;;;;;;;3.67;3.33;;;21.30;81.10;;;;;;5885162;24;20245;-88
2023/08/14 18:26:27;;;;;;;3.53;3.22;;;21.30;81.40;;;;;;5853682;24;20159;-89
2023/08/14 18:28:59;;;;;;;3.20;2.90;;;21.20;81.00;;;;;;5815582;24;20264;-90
2023/08/14 18:31:31;;;;;;;4.10;3.40;;;21.20;81.00;;;;;;5827078;24;20170;-87
2023/08/14 18:34:00;;;;;;;4.40;3.05;;;21.20;81.10;;;;;;5841958;24;20155;-87
2023/08/14 18:36:33;;;;;;;4.05;3.30;;;21.20;81.10;;;;;;5886073;24;20164;-88
2023/08/14 18:39:07;;;;;;;6.47;3.65;;;21.20;81.10;;;;;;5906393;24;20160;-88
2023/08/14 18:41:36;;;;;;;4.68;3.10;;;21.20;81.10;;;;;;5929844;24;20406;-90
2023/08/14 18:44:20;;;;;;;4.85;3.25;;;21.20;81.20;;;;;;5918893;24;20184;-87
2023/08/14 18:46:49;;;;;;;4.65;3.40;;;21.20;81.20;;;;;;5979577;24;20202;-88
2023/08/14 18:49:17;;;;;;;3.85;3.25;;;21.20;81.10;;;;;;5984882;24;20155;-88
2023/08/14 18:51:43;;;;;;;3.90;3.25;;;21.10;81.10;;;;;;5939752;24;20164;-89
2023/08/14 18:54:09;;;;;;;4.32;3.65;;;21.10;81.10;;;;;;5939116;24;20186;-88
2023/08/14 18:56:46;;;;;;;3.70;3.22;;;21.10;81.10;;;;;;5944048;23;20158;-90
2023/08/14 18:59:21;;;;;;;4.93;3.20;;;21.10;81.10;;;;;;5943804;23;20617;-89
2023/08/14 19:01:59;;;;;;;3.58;3.25;;;21.10;81.10;;;;;;6011145;23;20189;-88
2023/08/14 19:04:30;;;;;;;3.50;3.20;;;21.10;81.20;;;;;;5924759;23;20602;-90
2023/08/14 19:07:05;;;;;;;3.35;2.97;;;21.10;81.10;;;;;;5911512;24;20243;-88
2023/08/14 19:09:43;;;;;;;4.50;3.63;;;21.10;81.20;;;;;;5934793;24;20159;-89
2023/08/14 19:12:18;;;;;;;8.63;3.30;;;21.00;81.30;;;;;;5895330;24;20181;-90
2023/08/14 19:15:17;;;;;;;5.07;3.45;;;21.10;81.20;;;;;;5905596;24;20247;-89
2023/08/14 19:17:51;;;;;;;3.85;3.45;;;21.00;81.40;;;;;;5883216;24;20168;-88
2023/08/14 19:20:19;;;;;;;3.65;3.35;;;20.90;81.40;;;;;;5874568;24;20291;-87
2023/08/14 19:22:50;;;;;;;5.30;3.55;;;21.00;82.40;;;;;;5851343;24;20191;-88
2023/08/14 19:25:26;;;;;;;5.45;3.55;;;21.00;81.60;;;;;;5896703;24;20173;-88
2023/08/14 19:28:02;;;;;;;4.45;3.45;;;20.90;81.60;;;;;;5853011;24;20210;-89
2023/08/14 19:31:17;;;;;;;3.80;3.40;;;20.90;81.60;;;;;;5852357;24;20161;-90
2023/08/14 19:33:58;;;;;;;3.85;3.45;;;20.90;81.70;;;;;;5854365;24;20162;-89
2023/08/14 19:36:24;;;;;;;4.53;3.33;;;20.90;81.80;;;;;;5867153;24;20158;-88
2023/08/14 19:39:03;;;;;;;3.67;3.22;;;20.90;81.80;;;;;;5871124;24;20166;-91
2023/08/14 19:41:53;;;;;;;4.00;3.60;;;21.00;81.80;;;;;;5848231;24;20190;-89
2023/08/14 19:44:24;;;;;;;3.88;3.50;;;20.90;81.70;;;;;;5908955;24;20167;-90
2023/08/14 19:46:51;;;;;;;3.90;3.58;;;20.90;81.70;;;;;;5941657;24;20238;-89
2023/08/14 19:49:25;;;;;;;4.50;3.40;;;20.90;81.70;;;;;;5932418;24;20160;-89
2023/08/14 19:51:57;;;;;;;3.78;3.47;;;20.90;81.60;;;;;;5994962;23;20157;-91
2023/08/14 19:54:32;;;;;;;6.05;3.40;;;20.90;81.70;;;;;;6012417;23;20570;-89
2023/08/14 19:57:18;;;;;;;3.55;3.25;;;20.90;81.60;;;;;;5943855;23;20185;-88
2023/08/14 19:59:44;;;;;;;3.40;3.10;;;20.90;81.60;;;;;;5988730;23;20189;-89
2023/08/14 20:02:30;;;;;;;3.60;3.30;;;20.90;81.50;;;;;;5988594;23;20179;-88
2023/08/14 20:05:09;;;;;;;3.45;3.15;;;20.90;81.60;;;;;;5943066;23;20154;-90
2023/08/14 20:07:48;;;;;;;4.13;3.40;;;20.90;81.60;;;;;;6010753;23;20214;-88
2023/08/14 20:10:21;;;;;;;4.18;3.63;;;20.90;81.50;;;;;;6011780;23;20580;-89
2023/08/14 20:13:01;;;;;;;3.88;3.50;;;20.90;81.50;;;;;;6008938;23;20168;-89
2023/08/14 20:15:42;;;;;;;4.45;3.67;;;20.90;81.60;;;;;;6046014;23;20594;-88
2023/08/14 20:18:17;;;;;;;4.88;3.92;;;20.90;81.80;;;;;;6021480;23;20205;-88
2023/08/14 20:20:54;;;;;;;5.57;4.47;;;20.80;81.70;;;;;;6020670;23;20227;-87
2023/08/14 20:23:38;;;;;;;;;;;;;;;;;;;;;
2023/08/14 20:26:19;;;;;;;5.78;4.00;;;20.80;82.00;;;;;;6067260;23;20503;-90
2023/08/14 20:28:53;;;;;;;4.47;4.07;;;20.80;82.10;;;;;;6044190;23;20158;-88
2023/08/14 20:31:19;;;;;;;5.60;4.35;;;20.80;82.20;;;;;;6049627;23;20163;-88
2023/08/14 20:33:45;;;;;;;4.55;4.15;;;20.80;82.20;;;;;;6049871;23;20161;-88
2023/08/14 20:36:17;;;;;;;4.63;4.22;;;20.80;82.20;;;;;;6025922;23;20291;-90
2023/08/14 20:38:52;;;;;;;4.72;4.30;;;20.80;82.20;;;;;;6090008;23;20152;-88
2023/08/14 20:41:31;;;;;;;4.85;4.35;;;20.80;82.30;;;;;;6078208;23;20175;-88
2023/08/14 20:44:00;;;;;;;5.18;4.38;;;20.80;82.30;;;;;;6054909;23;20155;-89
2023/08/14 20:46:36;;;;;;;6.85;4.93;;;20.80;82.30;;;;;;6110849;23;20198;-88
2023/08/14 20:49:07;;;;;;;4.28;3.88;;;20.80;82.30;;;;;;6140991;23;20558;-89
2023/08/14 20:51:36;;;;;;;4.68;4.28;;;20.80;82.30;;;;;;6090137;23;20237;-88
2023/08/14 20:54:01;;;;;;;5.25;4.30;;;20.90;82.40;;;;;;6114875;23;20237;-88
2023/08/14 20:56:39;;;;;;;5.95;4.57;;;20.80;82.30;;;;;;6139846;23;20182;-89
2023/08/14 20:59:11;;;;;;;6.57;4.82;;;20.80;82.30;;;;;;6092829;23;20159;-89
2023/08/14 21:01:37;;;;;;;6.53;4.60;;;20.80;82.30;;;;;;6114758;23;20185;-87
2023/08/14 21:04:10;;;;;;;5.60;4.75;;;20.80;82.30;;;;;;6140175;23;20153;-88
2023/08/14 21:06:39;;;;;;;5.38;4.88;;;20.80;82.30;;;;;;6090124;23;20486;-89
2023/08/14 21:09:08;;;;;;;5.20;4.57;;;20.80;82.30;;;;;;6115783;23;20567;-87
2023/08/14 21:11:37;;;;;;;5.13;4.57;;;20.80;82.30;;;;;;6139958;23;20201;-88
2023/08/14 21:14:17;;;;;;;5.13;4.40;;;20.80;82.30;;;;;;6140409;23;20236;-91
2023/08/14 21:16:55;;;;;;;5.20;4.70;;;20.80;82.20;;;;;;6165683;23;20139;-89
2023/08/14 21:19:26;;;;;;;6.95;5.07;;;20.80;83.10;;;;;;6052617;23;20227;-88
2023/08/14 21:21:58;;;;;;;4.70;4.28;;;20.80;82.20;;;;;;6018678;23;20194;-89
2023/08/14 21:24:34;;;;;;;4.93;4.43;;;20.80;82.20;;;;;;6042837;23;20158;-88
2023/08/14 21:27:00;;;;;;;5.40;4.63;;;20.80;82.30;;;;;;6042978;23;20162;-88
2023/08/14 21:29:29;;;;;;;5.03;4.20;;;20.80;82.30;;;;;;6042586;23;20475;-90
2023/08/14 21:32:09;;;;;;;5.85;4.75;;;20.80;82.40;;;;;;6066823;23;20245;-88
2023/08/14 21:34:43;;;;;;;7.20;4.78;;;20.80;82.40;;;;;;6019275;23;20283;-88
2023/08/14 21:37:21;;;;;;;5.03;4.53;;;20.70;82.40;;;;;;6043166;23;20162;-88
2023/08/14 21:39:52;;;;;;;5.78;5.15;;;20.80;82.50;;;;;;6020061;23;20162;-89
2023/08/14 21:42:18;;;;;;;5.63;5.03;;;20.80;82.50;;;;;;6018696;23;20185;-90
2023/08/14 21:44:48;;;;;;;7.00;4.90;;;20.80;82.40;;;;;;6043961;23;20150;-88
2023/08/14 21:47:21;;;;;;;5.82;4.95;;;20.70;82.40;;;;;;6042417;23;20198;-88
2023/08/14 21:49:47;;;;;;;5.15;4.65;;;20.80;82.50;;;;;;6003064;23;20163;-88
2023/08/14 21:52:18;;;;;;;7.15;5.68;;;20.80;82.50;;;;;;5969234;23;20163;-90
2023/08/14 21:55:01;;;;;;;4.95;4.45;;;20.80;82.60;;;;;;5991519;23;20159;-90
2023/08/14 21:57:35;;;;;;;6.97;5.32;;;20.80;82.60;;;;;;5983278;23;20183;-88
2023/08/14 22:00:10;;;;;;;6.60;4.45;;;20.80;82.60;;;;;;6025921;23;20668;-87
2023/08/14 22:02:37;;;;;;;5.25;4.75;;;20.70;82.60;;;;;;5918414;24;20269;-89
2023/08/14 22:05:13;;;;;;;5.82;5.22;;;20.70;82.60;;;;;;5962069;24;20156;-89
2023/08/14 22:07:55;;;;;;;5.97;5.05;;;20.70;82.60;;;;;;5964128;24;20155;-88